createdAt,value
2023-04-28T00:00:19.684Z,5.10
2023-04-28T00:02:48.896Z,5.20
2023-04-28T00:05:16.168Z,5.10
2023-04-28T00:07:43.126Z,5.00
2023-04-28T00:10:10.366Z,5.10
2023-04-28T00:12:37.339Z,5.10
2023-04-28T00:15:04.601Z,5.00
2023-04-28T00:17:31.645Z,5.00
2023-04-28T00:19:58.986Z,5.00
2023-04-28T00:22:25.995Z,4.90
2023-04-28T00:24:52.909Z,4.90
2023-04-28T00:27:20.715Z,4.80
2023-04-28T00:29:47.691Z,4.80
2023-04-28T00:32:14.620Z,4.80
2023-04-28T00:34:41.669Z,4.70
2023-04-28T00:37:08.552Z,4.80
2023-04-28T00:39:35.422Z,4.70
2023-04-28T00:42:04.305Z,4.60
2023-04-28T00:44:31.271Z,4.70
2023-04-28T00:46:59.631Z,4.70
2023-04-28T00:49:26.870Z,4.70
2023-04-28T00:51:53.791Z,4.80
2023-04-28T00:54:21.088Z,4.80
2023-04-28T00:56:48.904Z,4.70
2023-04-28T00:59:16.108Z,4.80
2023-04-28T01:01:43.910Z,4.70
2023-04-28T01:04:10.988Z,4.70
2023-04-28T01:06:39.002Z,4.70
2023-04-28T01:09:07.645Z,4.70
2023-04-28T01:11:34.567Z,4.70
2023-04-28T01:14:01.501Z,4.60
2023-04-28T01:16:28.543Z,4.60
2023-04-28T01:18:55.865Z,4.50
2023-04-28T01:21:29.077Z,4.50
2023-04-28T01:23:58.126Z,4.40
2023-04-28T01:26:25.282Z,4.40
2023-04-28T01:28:52.442Z,4.50
2023-04-28T01:31:19.451Z,4.50
2023-04-28T01:33:46.365Z,4.50
2023-04-28T01:36:13.257Z,4.40
2023-04-28T01:38:40.143Z,4.40
2023-04-28T01:41:07.009Z,4.30
2023-04-28T01:43:33.933Z,4.30
2023-04-28T01:46:00.826Z,4.30
2023-04-28T01:48:27.714Z,4.30
2023-04-28T01:50:54.552Z,4.30
2023-04-28T01:53:21.423Z,4.20
2023-04-28T01:55:48.320Z,4.10
2023-04-28T01:58:15.182Z,4.20
2023-04-28T02:00:42.070Z,4.20
2023-04-28T02:03:09.051Z,4.20
2023-04-28T02:05:36.973Z,4.20
2023-04-28T02:08:03.922Z,4.20
2023-04-28T02:10:30.818Z,4.20
2023-04-28T02:12:57.711Z,4.20
2023-04-28T02:15:24.684Z,4.30
2023-04-28T02:17:51.714Z,4.20
2023-04-28T02:20:18.730Z,4.20
2023-04-28T02:22:45.649Z,4.10
2023-04-28T02:25:12.599Z,4.00
2023-04-28T02:27:39.533Z,3.90
2023-04-28T02:30:07.207Z,3.90
2023-04-28T02:32:34.182Z,3.80
2023-04-28T02:35:01.121Z,3.80
2023-04-28T02:37:28.011Z,3.80
2023-04-28T02:39:54.893Z,3.80
2023-04-28T02:42:21.803Z,3.90
2023-04-28T02:44:48.733Z,3.80
2023-04-28T02:47:15.712Z,3.90
2023-04-28T02:49:42.549Z,3.90
2023-04-28T02:52:09.587Z,3.90
2023-04-28T02:54:37.470Z,3.90
2023-04-28T02:57:04.803Z,3.80
2023-04-28T02:59:31.852Z,3.90
2023-04-28T03:01:58.732Z,3.70
2023-04-28T03:04:25.717Z,3.70
2023-04-28T03:06:52.939Z,3.80
2023-04-28T03:09:19.857Z,3.70
2023-04-28T03:11:46.738Z,3.70
2023-04-28T03:14:13.715Z,3.70
2023-04-28T03:16:40.662Z,3.70
2023-04-28T03:19:07.573Z,3.80
2023-04-28T03:21:34.544Z,3.80
2023-04-28T03:24:02.909Z,3.90
2023-04-28T03:26:31.068Z,3.90
2023-04-28T03:28:58.010Z,3.90
2023-04-28T03:31:24.956Z,3.80
2023-04-28T03:33:51.835Z,3.70
2023-04-28T03:36:18.760Z,3.60
2023-04-28T03:38:45.594Z,3.40
2023-04-28T03:41:12.503Z,3.50
2023-04-28T03:43:39.435Z,3.60
2023-04-28T03:46:06.320Z,3.60
2023-04-28T03:48:33.298Z,3.70
2023-04-28T03:51:00.140Z,3.70
2023-04-28T03:53:27.111Z,3.70
2023-04-28T03:55:54.070Z,3.70
2023-04-28T03:58:21.114Z,3.80
2023-04-28T04:00:48.094Z,3.90
2023-04-28T04:03:15.149Z,4.00
2023-04-28T04:05:42.447Z,4.30
2023-04-28T04:08:09.509Z,4.60
2023-04-28T04:10:36.938Z,4.70
2023-04-28T04:13:03.811Z,5.00
2023-04-28T04:15:31.021Z,5.20
2023-04-28T04:17:57.982Z,5.20
2023-04-28T04:20:24.916Z,5.40
2023-04-28T04:22:51.764Z,5.50
2023-04-28T04:25:18.659Z,5.60
2023-04-28T04:27:45.544Z,5.80
2023-04-28T04:30:12.689Z,5.90
2023-04-28T04:32:39.619Z,6.20
2023-04-28T04:35:06.927Z,6.40
2023-04-28T04:37:34.044Z,6.70
2023-04-28T04:40:01.080Z,7.00
2023-04-28T04:42:27.958Z,7.30
2023-04-28T04:44:55.045Z,7.70
2023-04-28T04:47:21.929Z,8.10
2023-04-28T04:49:50.242Z,8.50
2023-04-28T04:52:17.145Z,8.90
2023-04-28T04:54:44.095Z,9.30
2023-04-28T04:57:12.136Z,9.70
2023-04-28T04:59:38.998Z,10.00
2023-04-28T05:02:05.976Z,10.40
2023-04-28T05:04:33.097Z,10.80
2023-04-28T05:07:00.201Z,11.00
2023-04-28T05:09:27.266Z,11.30
2023-04-28T05:11:54.118Z,11.70
2023-04-28T05:14:21.114Z,11.90
2023-04-28T05:16:48.052Z,12.10
2023-04-28T05:19:15.219Z,12.40
2023-04-28T05:21:42.175Z,12.70
2023-04-28T05:24:09.029Z,13.00
2023-04-28T05:26:36.732Z,13.30
2023-04-28T05:29:03.691Z,13.40
2023-04-28T05:31:30.638Z,13.60
2023-04-28T05:33:57.575Z,13.90
2023-04-28T05:36:24.656Z,14.10
2023-04-28T05:38:51.590Z,14.40
2023-04-28T05:41:18.544Z,14.40
2023-04-28T05:43:46.472Z,14.70
2023-04-28T05:46:28.152Z,14.80
2023-04-28T05:48:57.331Z,14.90
2023-04-28T05:51:24.334Z,15.20
2023-04-28T05:53:51.328Z,15.40
2023-04-28T05:56:18.593Z,15.20
2023-04-28T05:58:45.811Z,15.60
2023-04-28T06:01:13.191Z,15.80
2023-04-28T06:03:42.219Z,15.90
2023-04-28T06:06:10.988Z,15.40
2023-04-28T06:08:38.582Z,15.20
2023-04-28T06:11:06.072Z,15.50
2023-04-28T06:13:33.156Z,16.00
2023-04-28T06:16:00.161Z,16.20
2023-04-28T06:18:27.454Z,15.90
2023-04-28T06:20:54.326Z,15.80
2023-04-28T06:23:21.204Z,15.80
2023-04-28T06:25:48.228Z,16.10
2023-04-28T06:28:15.308Z,16.40
2023-04-28T06:30:42.313Z,16.70
2023-04-28T06:37:00.870Z,17.00
2023-04-28T06:39:27.798Z,17.40
2023-04-28T06:41:54.675Z,17.70
2023-04-28T06:44:21.655Z,18.00
2023-04-28T06:46:48.796Z,18.50
2023-04-28T06:49:15.785Z,18.90
2023-04-28T06:51:43.092Z,19.10
2023-04-28T06:54:10.169Z,19.20
2023-04-28T06:56:37.042Z,19.50
2023-04-28T06:59:03.941Z,19.20
2023-04-28T07:01:31.055Z,18.70
2023-04-28T07:03:58.117Z,18.20
2023-04-28T07:06:27.436Z,18.30
2023-04-28T07:08:54.596Z,18.50
2023-04-28T07:11:23.437Z,18.60
2023-04-28T07:13:51.718Z,18.80
2023-04-28T07:16:19.321Z,18.90
2023-04-28T07:18:46.590Z,18.70
2023-04-28T07:21:13.598Z,18.70
2023-04-28T07:23:41.075Z,18.60
2023-04-28T07:26:08.377Z,18.60
2023-04-28T07:28:35.708Z,18.60
2023-04-28T07:31:02.600Z,18.80
2023-04-28T07:33:29.479Z,19.30
2023-04-28T07:35:56.448Z,19.20
2023-04-28T07:38:23.641Z,19.00
2023-04-28T07:43:22.504Z,18.20
2023-04-28T07:45:50.426Z,18.40
2023-04-28T07:48:17.502Z,18.70
2023-04-28T07:50:44.466Z,19.00
2023-04-28T07:53:11.396Z,19.30
2023-04-28T07:55:38.744Z,19.40
2023-04-28T07:58:05.856Z,19.60
2023-04-28T08:00:32.788Z,19.80
2023-04-28T08:03:00.288Z,19.50
2023-04-28T08:05:27.298Z,19.60
2023-04-28T08:07:54.359Z,20.00
2023-04-28T08:10:21.466Z,20.30
2023-04-28T08:12:48.423Z,20.50
2023-04-28T08:15:16.604Z,19.70
2023-04-28T08:17:44.849Z,19.40
2023-04-28T08:20:12.244Z,19.90
2023-04-28T08:22:39.111Z,20.30
2023-04-28T08:25:06.396Z,20.40
2023-04-28T08:27:34.660Z,20.60
2023-04-28T08:30:01.582Z,20.50
2023-04-28T08:32:28.489Z,20.40
2023-04-28T08:34:55.617Z,20.10
2023-04-28T08:37:22.557Z,20.20
2023-04-28T08:39:49.495Z,20.50
2023-04-28T08:42:17.943Z,20.30
2023-04-28T08:44:45.787Z,20.50
2023-04-28T08:47:14.729Z,20.20
2023-04-28T08:49:42.259Z,19.40
2023-04-28T08:52:12.584Z,19.10
2023-04-28T08:54:42.842Z,19.80
2023-04-28T08:57:11.277Z,20.50
2023-04-28T08:59:40.439Z,20.70
2023-04-28T09:02:10.891Z,20.40
2023-04-28T09:04:38.338Z,20.30
2023-04-28T09:07:12.029Z,20.80
2023-04-28T09:09:39.932Z,21.50
2023-04-28T09:12:08.075Z,21.40
2023-04-28T09:14:36.920Z,21.20
2023-04-28T09:17:14.328Z,21.10
2023-04-28T09:19:43.481Z,21.40
2023-04-28T09:22:21.943Z,21.30
2023-04-28T09:24:53.325Z,20.90
2023-04-28T09:27:29.673Z,20.50
2023-04-28T09:29:56.773Z,20.60
2023-04-28T09:32:25.910Z,20.80
2023-04-28T09:34:57.081Z,20.60
2023-04-28T09:37:27.515Z,20.60
2023-04-28T09:39:55.528Z,20.80
2023-04-28T09:42:41.278Z,20.30
2023-04-28T09:45:09.908Z,19.80
2023-04-28T09:47:42.670Z,19.70
2023-04-28T09:50:14.840Z,19.40
2023-04-28T09:52:44.352Z,19.30
2023-04-28T09:55:12.561Z,19.20
2023-04-28T09:57:40.271Z,19.20
2023-04-28T10:00:09.456Z,19.30
2023-04-28T10:05:13.112Z,19.70
2023-04-28T10:07:41.394Z,19.70
2023-04-28T10:10:08.939Z,19.50
2023-04-28T10:12:38.717Z,19.30
2023-04-28T10:15:07.683Z,19.40
2023-04-28T10:17:36.804Z,19.40
2023-04-28T10:20:05.435Z,19.00
2023-04-28T10:23:06.907Z,18.70
2023-04-28T10:25:39.231Z,18.60
2023-04-28T10:28:08.653Z,18.80
2023-04-28T10:30:36.233Z,18.70
2023-04-28T10:33:12.122Z,18.20
2023-04-28T10:35:43.294Z,18.30
2023-04-28T10:38:16.609Z,18.60
2023-04-28T10:40:50.885Z,18.50
2023-04-28T10:43:31.004Z,18.60
2023-04-28T10:46:00.881Z,18.40
2023-04-28T10:48:33.750Z,18.40
2023-04-28T10:51:09.991Z,18.40
2023-04-28T10:53:46.067Z,18.30
2023-04-28T10:56:19.705Z,18.30
2023-04-28T10:58:50.939Z,18.20
2023-04-28T11:01:21.256Z,18.20
2023-04-28T11:03:52.082Z,18.50
2023-04-28T11:06:25.064Z,18.30
2023-04-28T11:08:52.529Z,18.40
2023-04-28T11:11:36.531Z,18.50
2023-04-28T11:14:18.710Z,18.60
2023-04-28T11:17:01.250Z,18.70
2023-04-28T11:19:30.695Z,18.50
2023-04-28T11:22:02.350Z,18.60
2023-04-28T11:24:30.324Z,18.80
2023-04-28T11:26:58.701Z,19.00
2023-04-28T11:29:35.998Z,19.10
2023-04-28T11:32:04.798Z,19.30
2023-04-28T11:34:32.800Z,19.30
2023-04-28T11:36:59.885Z,19.40
2023-04-28T11:39:31.405Z,19.60
2023-04-28T11:42:02.935Z,19.60
2023-04-28T11:44:31.390Z,19.60
2023-04-28T11:47:01.300Z,19.60
2023-04-28T11:49:41.596Z,19.50
2023-04-28T11:52:09.922Z,19.20
2023-04-28T11:54:37.263Z,19.10
2023-04-28T11:57:04.984Z,19.10
2023-04-28T11:59:34.343Z,18.90
2023-04-28T12:02:07.708Z,18.70
2023-04-28T12:04:42.744Z,18.80
2023-04-28T12:07:14.757Z,19.00
2023-04-28T12:09:43.658Z,18.90
2023-04-28T12:12:13.150Z,18.80
2023-04-28T12:14:59.764Z,18.40
2023-04-28T12:17:31.576Z,18.10
2023-04-28T12:20:02.082Z,18.10
2023-04-28T12:22:29.776Z,18.20
2023-04-28T12:25:03.517Z,18.10
2023-04-28T12:27:31.325Z,18.10
2023-04-28T12:29:58.480Z,18.20
2023-04-28T12:32:45.169Z,18.30
2023-04-28T12:35:12.124Z,18.30
2023-04-28T12:37:40.080Z,18.30
2023-04-28T12:40:07.881Z,18.40
2023-04-28T12:42:35.619Z,18.40
2023-04-28T12:45:02.636Z,18.30
2023-04-28T12:47:29.619Z,18.20
2023-04-28T12:49:56.522Z,18.40
2023-04-28T12:52:24.779Z,18.50
2023-04-28T12:54:51.843Z,18.60
2023-04-28T12:57:20.034Z,18.70
2023-04-28T12:59:52.368Z,18.80
2023-04-28T13:02:19.417Z,18.70
2023-04-28T13:04:46.865Z,18.70
2023-04-28T13:07:15.526Z,18.60
2023-04-28T13:09:44.331Z,18.50
2023-04-28T13:12:14.892Z,18.30
2023-04-28T13:14:42.249Z,18.20
2023-04-28T13:17:10.505Z,18.50
2023-04-28T13:19:37.663Z,18.60
2023-04-28T13:22:06.068Z,18.70
2023-04-28T13:24:36.290Z,18.80
2023-04-28T13:27:04.081Z,18.90
2023-04-28T13:29:30.986Z,18.80
2023-04-28T13:31:57.820Z,18.80
2023-04-28T13:34:24.738Z,18.70
2023-04-28T13:36:54.054Z,18.80
2023-04-28T13:39:22.230Z,18.90
2023-04-28T13:41:49.850Z,18.90
2023-04-28T13:44:17.404Z,19.00
2023-04-28T13:46:44.338Z,19.00
2023-04-28T13:49:11.209Z,19.00
2023-04-28T13:51:38.942Z,19.00
2023-04-28T13:54:08.938Z,19.00
2023-04-28T13:56:36.741Z,19.00
2023-04-28T13:59:04.085Z,19.00
2023-04-28T14:01:31.288Z,18.80
2023-04-28T14:03:59.073Z,18.80
2023-04-28T14:06:27.455Z,18.70
2023-04-28T14:08:54.432Z,18.60
2023-04-28T14:11:21.611Z,18.60
2023-04-28T14:13:48.519Z,18.60
2023-04-28T14:16:15.473Z,18.60
2023-04-28T14:18:42.433Z,18.60
2023-04-28T14:21:09.350Z,18.80
2023-04-28T14:23:36.708Z,18.90
2023-04-28T14:26:03.752Z,19.00
2023-04-28T14:28:30.871Z,18.70
2023-04-28T14:30:57.830Z,18.50
2023-04-28T14:33:24.777Z,18.30
2023-04-28T14:35:51.722Z,18.20
2023-04-28T14:38:18.681Z,18.10
2023-04-28T14:40:45.664Z,18.20
2023-04-28T14:43:14.040Z,18.20
2023-04-28T14:45:41.170Z,18.10
2023-04-28T14:48:10.555Z,18.10
2023-04-28T14:50:37.802Z,18.10
2023-04-28T14:53:07.825Z,18.00
2023-04-28T14:55:35.018Z,17.90
2023-04-28T14:58:03.016Z,17.90
2023-04-28T15:00:30.870Z,17.90
2023-04-28T15:02:58.133Z,18.00
2023-04-28T15:05:25.143Z,18.00
2023-04-28T15:07:52.451Z,18.00
2023-04-28T15:10:19.374Z,18.00
2023-04-28T15:12:47.344Z,18.00
2023-04-28T15:15:14.531Z,18.20
2023-04-28T15:17:41.466Z,18.20
2023-04-28T15:20:09.235Z,18.10
2023-04-28T15:22:36.738Z,18.10
2023-04-28T15:25:03.784Z,18.10
2023-04-28T15:27:30.653Z,18.00
2023-04-28T15:29:57.960Z,17.90
2023-04-28T15:32:25.113Z,17.90
2023-04-28T15:34:52.265Z,17.80
2023-04-28T15:37:38.156Z,17.90
2023-04-28T15:40:12.251Z,17.80
2023-04-28T15:42:42.086Z,17.80
2023-04-28T15:45:13.443Z,17.90
2023-04-28T15:47:40.823Z,17.90
2023-04-28T15:50:09.290Z,17.80
2023-04-28T15:52:39.442Z,17.70
2023-04-28T15:55:08.191Z,17.70
2023-04-28T15:57:35.042Z,17.70
2023-04-28T16:00:02.066Z,17.60
2023-04-28T16:02:29.198Z,17.50
2023-04-28T16:04:56.134Z,17.40
2023-04-28T16:07:23.226Z,17.40
2023-04-28T16:09:50.118Z,17.40
2023-04-28T16:12:16.979Z,17.40
2023-04-28T16:14:43.835Z,17.30
2023-04-28T16:17:10.710Z,17.30
2023-04-28T16:19:38.168Z,17.30
2023-04-28T16:22:05.061Z,17.30
2023-04-28T16:24:32.423Z,17.30
2023-04-28T16:26:59.393Z,17.20
2023-04-28T16:29:26.576Z,17.10
2023-04-28T16:31:53.626Z,17.00
2023-04-28T16:34:20.606Z,17.00
2023-04-28T16:36:47.689Z,16.70
2023-04-28T16:39:15.334Z,17.00
2023-04-28T16:41:42.171Z,16.90
2023-04-28T16:44:09.049Z,16.90
2023-04-28T16:46:35.952Z,17.00
2023-04-28T16:49:02.929Z,16.90
2023-04-28T16:51:29.794Z,16.90
2023-04-28T16:53:56.634Z,16.90
2023-04-28T16:56:23.551Z,16.90
2023-04-28T16:58:50.517Z,16.90
2023-04-28T17:01:17.464Z,16.80
2023-04-28T17:03:45.212Z,16.80
2023-04-28T17:06:12.283Z,16.80
2023-04-28T17:08:42.366Z,16.70
2023-04-28T17:11:09.310Z,16.60
2023-04-28T17:13:36.304Z,16.60
2023-04-28T17:16:04.148Z,16.60
2023-04-28T17:18:31.448Z,16.60
2023-04-28T17:20:58.294Z,16.60
2023-04-28T17:23:27.790Z,16.50
2023-04-28T17:25:54.689Z,16.50
2023-04-28T17:28:25.215Z,16.40
2023-04-28T17:30:53.027Z,16.30
2023-04-28T17:33:19.932Z,16.30
2023-04-28T17:35:46.958Z,16.30
2023-04-28T17:38:14.078Z,16.30
2023-04-28T17:40:41.217Z,16.30
2023-04-28T17:43:08.105Z,16.30
2023-04-28T17:45:35.066Z,16.30
2023-04-28T17:48:01.962Z,16.20
2023-04-28T17:50:29.782Z,16.20
2023-04-28T17:52:56.974Z,16.20
2023-04-28T17:55:24.001Z,16.10
2023-04-28T17:57:52.030Z,16.10
2023-04-28T18:00:19.183Z,16.00
2023-04-28T18:02:46.220Z,16.10
2023-04-28T18:05:13.313Z,16.10
2023-04-28T18:07:40.259Z,16.10
2023-04-28T18:10:07.356Z,16.00
2023-04-28T18:12:35.886Z,16.00
2023-04-28T18:15:03.045Z,15.90
2023-04-28T18:17:30.587Z,15.90
2023-04-28T18:19:57.887Z,15.90
2023-04-28T18:22:24.788Z,15.90
2023-04-28T18:24:53.118Z,15.90
2023-04-28T18:27:20.537Z,15.80
2023-04-28T18:29:47.785Z,15.70
2023-04-28T18:32:15.268Z,15.70
2023-04-28T18:34:43.628Z,15.60
2023-04-28T18:37:11.033Z,15.60
2023-04-28T18:39:38.351Z,15.50
2023-04-28T18:42:06.003Z,15.50
2023-04-28T18:44:33.490Z,15.40
2023-04-28T18:47:00.885Z,15.30
2023-04-28T18:49:29.268Z,15.30
2023-04-28T18:51:57.804Z,15.20
2023-04-28T18:54:28.051Z,15.20
2023-04-28T18:56:56.263Z,15.10
2023-04-28T18:59:23.522Z,15.00
2023-04-28T19:01:51.229Z,15.00
2023-04-28T19:04:20.176Z,15.00
2023-04-28T19:06:47.659Z,14.90
2023-04-28T19:09:15.270Z,14.80
2023-04-28T19:11:42.801Z,14.80
2023-04-28T19:14:10.323Z,14.80
2023-04-28T19:16:37.333Z,14.80
2023-04-28T19:19:04.786Z,14.80
2023-04-28T19:21:41.885Z,14.80
2023-04-28T19:24:09.684Z,14.70
2023-04-28T19:26:37.690Z,14.80
2023-04-28T19:29:05.337Z,14.70
2023-04-28T19:31:34.547Z,14.70
2023-04-28T19:34:02.143Z,14.70
2023-04-28T19:36:30.061Z,14.60
2023-04-28T19:38:57.664Z,14.50
2023-04-28T19:41:25.033Z,14.50
2023-04-28T19:43:52.317Z,14.60
2023-04-28T19:46:19.902Z,14.50
2023-04-28T19:48:50.358Z,14.40
2023-04-28T19:51:18.043Z,14.40
2023-04-28T19:53:47.602Z,14.40
2023-04-28T19:56:17.837Z,14.40
2023-04-28T19:58:45.314Z,14.40
2023-04-28T20:01:12.711Z,14.30
2023-04-28T20:03:40.521Z,14.30
2023-04-28T20:06:09.429Z,14.30
2023-04-28T20:08:36.781Z,14.30
2023-04-28T20:11:04.201Z,14.20
2023-04-28T20:13:31.505Z,14.20
2023-04-28T20:15:58.989Z,14.20
2023-04-28T20:18:26.297Z,14.10
2023-04-28T20:20:54.242Z,14.00
2023-04-28T20:23:21.571Z,14.00
2023-04-28T20:25:49.071Z,14.00
2023-04-28T20:28:16.664Z,14.00
2023-04-28T20:30:44.227Z,14.00
2023-04-28T20:33:11.210Z,14.10
2023-04-28T20:35:38.266Z,14.00
2023-04-28T20:38:05.138Z,14.00
2023-04-28T20:40:32.009Z,14.00
2023-04-28T20:43:01.695Z,14.00
2023-04-28T20:45:28.555Z,14.00
2023-04-28T20:47:56.527Z,13.90
2023-04-28T20:50:23.961Z,14.00
2023-04-28T20:52:51.189Z,14.00
2023-04-28T20:55:18.076Z,14.00
2023-04-28T20:57:45.115Z,13.90
2023-04-28T21:00:13.044Z,13.90
2023-04-28T21:02:40.117Z,13.90
2023-04-28T21:05:07.721Z,13.90
2023-04-28T21:07:34.710Z,14.00
2023-04-28T21:10:01.591Z,13.90
2023-04-28T21:12:28.470Z,14.00
2023-04-28T21:14:55.315Z,14.00
2023-04-28T21:17:22.205Z,14.00
2023-04-28T21:19:49.291Z,14.00
2023-04-28T21:22:16.717Z,14.00
2023-04-28T21:24:43.584Z,14.00
2023-04-28T21:27:10.472Z,13.90
2023-04-28T21:29:37.340Z,13.90
2023-04-28T21:32:04.239Z,13.90
2023-04-28T21:34:31.138Z,13.90
2023-04-28T21:36:58.456Z,13.90
2023-04-28T21:39:25.406Z,13.90
2023-04-28T21:41:52.594Z,14.00
2023-04-28T21:44:19.669Z,13.90
2023-04-28T21:46:47.235Z,13.90
2023-04-28T21:49:14.292Z,13.90
2023-04-28T21:51:45.905Z,13.90
2023-04-28T21:54:12.828Z,13.90
2023-04-28T21:56:39.705Z,13.80
2023-04-28T21:59:06.602Z,13.80
2023-04-28T22:01:33.930Z,13.90
2023-04-28T22:04:03.669Z,13.90
2023-04-28T22:06:31.570Z,13.80
2023-04-28T22:08:58.453Z,13.80
2023-04-28T22:11:25.498Z,13.80
2023-04-28T22:13:52.471Z,13.80
2023-04-28T22:16:19.563Z,13.80
2023-04-28T22:18:46.601Z,13.80
2023-04-28T22:21:14.030Z,13.80
2023-04-28T22:23:41.358Z,13.80
2023-04-28T22:26:08.279Z,13.80
2023-04-28T22:28:35.427Z,13.70
2023-04-28T22:31:02.618Z,13.70
2023-04-28T22:33:29.600Z,13.70
2023-04-28T22:35:56.455Z,13.70
2023-04-28T22:38:23.303Z,13.70
2023-04-28T22:40:50.185Z,13.60
2023-04-28T22:43:17.441Z,13.60
2023-04-28T22:45:47.859Z,13.60
2023-04-28T22:48:14.702Z,13.50
2023-04-28T22:50:41.586Z,13.50
2023-04-28T22:53:08.472Z,13.50
2023-04-28T22:55:36.134Z,13.50
2023-04-28T22:58:02.969Z,13.50
2023-04-28T23:00:30.049Z,13.40
2023-04-28T23:02:57.099Z,13.40
2023-04-28T23:05:24.092Z,13.40
2023-04-28T23:07:50.909Z,13.40
2023-04-28T23:10:19.002Z,13.30
2023-04-28T23:12:45.928Z,13.30
2023-04-28T23:15:12.853Z,13.30
2023-04-28T23:17:39.806Z,13.20
2023-04-28T23:20:07.448Z,13.20
2023-04-28T23:22:34.326Z,13.30
2023-04-28T23:25:01.288Z,13.20
2023-04-28T23:27:28.207Z,13.20
2023-04-28T23:29:55.120Z,13.20
2023-04-28T23:32:22.076Z,13.10
2023-04-28T23:34:49.101Z,13.10
2023-04-28T23:37:16.053Z,13.10
2023-04-28T23:39:42.900Z,13.00
2023-04-28T23:42:09.847Z,13.00
2023-04-28T23:44:36.960Z,13.00
2023-04-28T23:47:03.862Z,12.90
2023-04-28T23:49:30.731Z,12.90
2023-04-28T23:51:57.582Z,12.90
2023-04-28T23:54:24.472Z,12.90
2023-04-28T23:56:51.332Z,12.90
2023-04-28T23:59:18.213Z,12.90
